Mettet, Belgium
Current Conditions -  °F | °C
As of 3:20 PM on Thursday 18 Dec 2014 (Local Time) from EBCI Reporting Station
Drizzle Drizzle  
Wind Chill: 52°   Ceiling: 600
Heat Index: 52°   Visibility: 4mi
Dew Point: 50°   Wind: 23mph
Humidity: 94%   Direction: 250°WSW
Pressure: 29.94"   Gusts: 36mph
Location:  50.32°N, 4.66°E
Report Text: EBCI 181420Z 25020G31KT 6000 -DZ BKN006 11/10 Q1014 NOSIG
Loading
Personal Weather Stations






























Interactive Weather Map New forecast layout! Learn more

10-Day Weather Forecast

Advertisements
Track Severe Weather on mobile